Terminal Aerodrome Forecast
Issued by NWS

Home | Current Version | Previous Version | Text Only | Print | Product List | Glossary On
Versions: 1 2 3 4 5 6 7 8 9 10 11 12 13 14 15 16 17 18 19 20 21 22 23 24 25 26
000
FTUS43 KDMX 211127
TAFFOD
TAF
KFOD 211127Z 2112/2212 19010KT P6SM VCTS SCT040CB OVC120
     FM211500 19011G17KT P6SM FEW050 BKN120
     FM220000 VRB06KT P6SM SCT060 BKN150
     FM220600 VRB04KT 5SM BR FEW010 SCT050 BKN120=

USA.gov is the U.S. government's official web portal to all federal, state and local government web resources and services.